Time;durP1;ratioP1;P1;durP2;ratioP2;P2;SDS_P1;SDS_P2;PMS_P1;PMS_P2;Temp;Humidity;BMP_temperature;BMP_pressure;BME280_temperature;BME280_humidity;BME280_pressure;Samples;Min_cycle;Max_cycle;Signal;HPM_P1;HPM_P2
2022/09/08 00:00:38;;;;;;;6.65;5.20;;;;;;;22.63;57.13;101769.56;5034339;28;20044;-81
2022/09/08 00:03:07;;;;;;;6.20;5.03;;;;;;;22.52;57.42;101741.81;5034250;28;20478;-81
2022/09/08 00:05:37;;;;;;;5.40;4.22;;;;;;;22.63;57.38;101766.03;5017047;28;20032;-81
2022/09/08 00:08:03;;;;;;;5.63;4.85;;;;;;;22.65;57.24;101764.25;5033650;28;20465;-81
2022/09/08 00:10:30;;;;;;;7.82;4.80;;;;;;;22.68;57.18;101773.22;5005676;28;20026;-80
2022/09/08 00:12:56;;;;;;;5.50;4.55;;;;;;;22.65;57.41;101773.16;5014005;28;20475;-80
2022/09/08 00:15:23;;;;;;;5.90;4.50;;;;;;;22.64;57.24;101776.69;5034335;28;20028;-81
2022/09/08 00:17:48;;;;;;;5.05;4.45;;;;;;;22.67;57.54;101775.84;5034330;28;20459;-81
2022/09/08 00:20:14;;;;;;;5.43;4.70;;;;;;;22.66;57.17;101780.28;5016722;28;20129;-81
2022/09/08 00:22:40;;;;;;;5.57;4.40;;;;;;;22.67;57.32;101775.84;5014953;28;20052;-81
2022/09/08 00:25:07;;;;;;;5.85;4.70;;;;;;;22.64;57.48;101778.44;5034519;28;20398;-81
2022/09/08 00:27:32;;;;;;;5.70;4.55;;;;;;;22.56;57.44;101768.56;5033524;28;20407;-81
2022/09/08 00:29:58;;;;;;;6.43;4.68;;;;;;;22.47;57.47;101748.81;5034306;28;20036;-82
2022/09/08 00:32:24;;;;;;;7.40;4.72;;;;;;;22.65;57.34;101765.19;5032731;28;20037;-81
2022/09/08 00:34:50;;;;;;;;;;;;;;;22.68;57.26;101772.31;5033608;28;20116;-81
2022/09/08 00:37:18;;;;;;;6.90;4.50;;;;;;;22.62;57.68;101772.19;5033312;28;19978;-81
2022/09/08 00:39:43;;;;;;;5.53;4.35;;;;;;;22.62;57.33;101767.75;5033458;28;20017;-81
2022/09/08 00:42:09;;;;;;;7.25;4.68;;;;;;;22.64;57.26;101767.81;5032959;28;20022;-82
2022/09/08 00:44:50;;;;;;;6.35;5.10;;;;;;;22.61;57.14;101765.97;5033821;28;20491;-81
2022/09/08 00:47:31;;;;;;;4.82;4.28;;;;;;;22.62;57.17;101767.75;5016498;28;20048;-80
2022/09/08 00:50:18;;;;;;;5.25;4.72;;;;;;;22.56;57.35;101759.66;5030544;28;20025;-80
2022/09/08 00:52:50;;;;;;;6.40;4.55;;;;;;;22.60;57.49;101761.50;5012747;28;20025;-81
2022/09/08 00:55:17;;;;;;;4.75;4.13;;;;;;;22.59;57.67;101767.72;5033428;28;20120;-81
2022/09/08 00:57:42;;;;;;;6.22;4.57;;;;;;;22.53;57.43;101751.63;5014513;28;20113;-81
2022/09/08 01:00:11;;;;;;;5.72;4.45;;;;;;;22.56;57.28;101757.91;5033390;28;20739;-79
2022/09/08 01:02:36;;;;;;;5.60;4.65;;;;;;;22.50;57.61;101755.13;4995201;28;20470;-80
2022/09/08 01:05:05;;;;;;;4.93;4.38;;;;;;;22.61;57.24;101765.09;5033585;28;20022;-80
2022/09/08 01:13:36;;;;;;;6.53;4.60;;;;;;;22.36;57.18;101737.94;5029711;28;20032;-80
2022/09/08 01:16:03;;;;;;;5.70;4.47;;;;;;;22.54;57.35;101764.03;5033100;28;20025;-80
2022/09/08 01:18:29;;;;;;;5.95;4.35;;;;;;;22.48;57.49;101755.91;5034105;28;20021;-80
2022/09/08 01:21:14;;;;;;;5.65;4.53;;;;;;;22.49;57.50;101758.63;5013843;28;20505;-80
2022/09/08 01:23:58;;;;;;;6.25;4.22;;;;;;;22.47;57.62;101755.03;5040883;28;20065;-80
2022/09/08 01:26:41;;;;;;;5.25;4.53;;;;;;;22.56;57.48;101762.31;5043051;28;20025;-81
2022/09/08 01:29:07;;;;;;;5.35;4.47;;;;;;;22.53;57.45;101757.81;5033874;28;20514;-81
2022/09/08 01:31:35;;;;;;;5.38;4.28;;;;;;;22.48;57.42;101756.84;5010090;28;20447;-80
2022/09/08 01:34:02;;;;;;;6.43;4.50;;;;;;;22.53;57.74;101755.16;5014449;28;20033;-81
2022/09/08 01:36:28;;;;;;;5.93;4.40;;;;;;;22.53;57.30;101757.81;5033093;28;20148;-81
2022/09/08 01:38:53;;;;;;;5.72;4.60;;;;;;;22.51;57.53;101762.22;5032989;28;20069;-81
2022/09/08 01:41:19;;;;;;;;;;;;;;;22.51;57.18;101759.56;5032412;28;20041;-81
2022/09/08 01:43:44;;;;;;;4.57;3.88;;;;;;;22.33;57.45;101736.13;5032664;28;20437;-81
2022/09/08 01:46:10;;;;;;;5.00;4.50;;;;;;;22.50;57.43;101763.09;5032683;28;20550;-81
2022/09/08 01:48:36;;;;;;;4.72;4.25;;;;;;;22.52;57.18;101768.44;5014893;28;20033;-81
2022/09/08 01:51:03;;;;;;;5.50;4.28;;;;;;;;;;5014142;28;20033;-81
2022/09/08 01:53:29;;;;;;;5.25;4.45;;;;;;;22.51;57.67;101769.31;5032465;28;20032;-81
2022/09/08 01:55:54;;;;;;;5.55;4.32;;;;;;;22.40;57.58;101746.91;5031658;28;20026;-81
2022/09/08 01:58:20;;;;;;;6.72;4.22;;;;;;;22.42;57.33;101751.38;5013298;28;20040;-81
2022/09/08 02:00:46;;;;;;;5.55;4.20;;;;;;;22.48;57.42;101762.16;5032207;28;20034;-81
2022/09/08 02:03:12;;;;;;;5.72;4.50;;;;;;;22.49;57.58;101760.41;5014592;28;20033;-81
2022/09/08 02:05:39;;;;;;;5.10;4.43;;;;;;;22.46;57.47;101761.25;5014835;28;20041;-82
2022/09/08 02:08:06;;;;;;;4.93;4.22;;;;;;;22.44;57.45;101762.97;5030556;28;20032;-82
2022/09/08 02:10:31;;;;;;;6.25;4.50;;;;;;;22.45;57.50;101758.53;5001858;28;20487;-82
2022/09/08 02:12:57;;;;;;;5.82;4.55;;;;;;;22.46;57.74;101758.56;5030021;28;20025;-81
2022/09/08 02:15:23;;;;;;;5.93;4.35;;;;;;;22.44;57.37;101755.00;5031341;28;20087;-81
2022/09/08 02:17:49;;;;;;;4.93;4.28;;;;;;;22.38;57.50;101740.66;5031928;28;20033;-81
2022/09/08 02:20:15;;;;;;;5.13;4.55;;;;;;;22.38;57.56;101732.66;5032361;28;20037;-81
2022/09/08 02:22:41;;;;;;;6.15;5.03;;;;;;;22.36;57.50;101722.88;5031881;28;20045;-81
2022/09/08 02:25:07;;;;;;;;;;;;;;;22.46;57.60;101747.03;5030614;28;20021;-81
2022/09/08 02:27:32;;;;;;;6.78;4.57;;;;;;;22.44;57.53;101747.00;5012929;28;19913;-81
2022/09/08 02:29:58;;;;;;;5.97;4.32;;;;;;;22.35;57.58;101728.16;5031617;28;20108;-81
2022/09/08 02:32:24;;;;;;;;;;;;;;;22.44;57.40;101738.13;5032314;28;20057;-81
2022/09/08 02:34:49;;;;;;;5.45;4.35;;;;;;;22.30;57.49;101716.53;5029696;28;19936;-81
2022/09/08 02:37:15;;;;;;;4.97;4.35;;;;;;;22.28;57.83;101721.81;5031750;28;20108;-81
2022/09/08 02:39:41;;;;;;;5.97;4.40;;;;;;;22.22;57.59;101702.13;5031722;28;20064;-81
2022/09/08 02:42:08;;;;;;;5.55;4.70;;;;;;;22.23;57.57;101704.88;5014133;28;20410;-81
2022/09/08 02:44:34;;;;;;;5.97;4.30;;;;;;;22.37;57.50;101737.06;5013143;28;20514;-82
2022/09/08 02:47:00;;;;;;;5.50;4.32;;;;;;;22.26;57.78;101718.22;5031300;28;20017;-81
2022/09/08 02:49:26;;;;;;;5.03;4.32;;;;;;;22.35;57.67;101734.41;5030552;28;20132;-82
2022/09/08 02:51:51;;;;;;;5.07;4.57;;;;;;;22.31;57.44;101715.69;5031635;28;20653;-82
2022/09/08 02:54:17;;;;;;;5.50;4.47;;;;;;;22.34;57.78;101732.59;5030471;28;20037;-82
2022/09/08 02:56:42;;;;;;;;;;;;;;;22.38;57.54;101727.34;5030815;28;20505;-81
2022/09/08 02:59:09;;;;;;;6.25;4.13;;;;;;;22.16;57.49;101694.91;5030851;28;19909;-81
2022/09/08 03:01:35;;;;;;;5.22;4.30;;;;;;;22.28;57.52;101716.50;5013503;28;20033;-81
2022/09/08 03:04:01;;;;;;;5.18;4.15;;;;;;;22.22;57.80;101710.09;5030705;28;20029;-82
2022/09/08 03:06:26;;;;;;;5.57;4.20;;;;;;;22.31;57.57;101732.53;5025257;28;20030;-82
2022/09/08 03:08:52;;;;;;;5.55;4.20;;;;;;;22.24;57.74;101719.06;5013445;28;20479;-82
2022/09/08 03:11:18;;;;;;;5.93;4.65;;;;;;;22.28;57.39;101724.47;5013284;28;20495;-82
2022/09/08 03:13:44;;;;;;;5.68;4.40;;;;;;;22.19;57.62;101713.63;5030112;28;20036;-82
2022/09/08 03:16:09;;;;;;;5.40;4.47;;;;;;;22.33;57.37;101735.22;5012074;28;20045;-83
2022/09/08 03:18:35;;;;;;;6.00;4.22;;;;;;;22.28;57.33;101734.22;5031030;28;20108;-82
2022/09/08 03:21:04;;;;;;;5.50;4.40;;;;;;;22.22;57.75;101729.63;5013452;28;20743;-82
2022/09/08 03:23:31;;;;;;;4.88;4.25;;;;;;;22.25;57.67;101724.44;5024168;28;20057;-81
2022/09/08 03:26:01;;;;;;;4.90;4.40;;;;;;;22.22;57.72;101723.41;5029749;28;20060;-82
2022/09/08 03:28:26;;;;;;;4.97;4.28;;;;;;;22.29;57.57;101736.94;5030328;28;20108;-82
2022/09/08 03:30:52;;;;;;;5.68;4.63;;;;;;;22.25;57.60;101728.84;5031087;28;20473;-83
2022/09/08 03:33:18;;;;;;;5.25;4.28;;;;;;;22.19;57.52;101720.69;5006348;28;20491;-83
2022/09/08 03:35:44;;;;;;;5.43;4.00;;;;;;;22.25;57.62;101739.50;5030850;28;20021;-82
2022/09/08 03:38:09;;;;;;;;;;;;;;;22.28;57.75;101731.56;5030562;28;20541;-82
2022/09/08 03:40:38;;;;;;;5.57;4.13;;;;;;;22.21;57.64;101740.25;5029270;28;19952;-84
2022/09/08 03:43:05;;;;;;;4.38;3.95;;;;;;;22.12;57.70;101730.31;5013329;28;20030;-84
2022/09/08 03:45:31;;;;;;;5.47;4.40;;;;;;;22.06;57.81;101720.44;4994221;28;20034;-83
2022/09/08 03:47:57;;;;;;;5.10;4.22;;;;;;;22.26;57.83;101743.94;5006394;28;20076;-82
2022/09/08 03:50:23;;;;;;;5.78;4.38;;;;;;;22.22;57.44;101744.69;5018095;28;20037;-80
2022/09/08 03:52:49;;;;;;;5.47;4.50;;;;;;;22.14;57.66;101731.25;5012961;28;20403;-81
2022/09/08 03:55:15;;;;;;;5.78;4.53;;;;;;;22.07;57.57;101713.34;5030529;28;20187;-82
2022/09/08 03:57:40;;;;;;;;;;;;;;;22.19;57.77;101736.66;5021561;28;20634;-81
2022/09/08 04:00:08;;;;;;;5.63;4.20;;;;;;;22.17;57.70;101739.28;5031344;28;19909;-81
2022/09/08 04:02:34;;;;;;;7.07;4.15;;;;;;;22.19;57.57;101740.22;5013265;28;20026;-82
2022/09/08 04:05:00;;;;;;;4.95;4.38;;;;;;;22.17;57.75;101736.63;5013164;28;20036;-82
2022/09/08 04:07:30;;;;;;;5.57;4.57;;;;;;;22.17;57.81;101745.50;5017125;28;20033;-82
2022/09/08 04:09:57;;;;;;;5.00;4.47;;;;;;;22.06;57.49;101730.19;5030632;28;20498;-82
2022/09/08 04:12:26;;;;;;;4.72;4.30;;;;;;;22.13;57.71;101738.31;5010813;28;20035;-82
2022/09/08 04:14:52;;;;;;;8.32;4.57;;;;;;;21.99;57.63;101714.94;5010990;28;20826;-82
2022/09/08 04:17:19;;;;;;;5.53;4.63;;;;;;;22.06;57.72;101719.53;5007846;28;20116;-82
2022/09/08 04:19:46;;;;;;;5.45;4.20;;;;;;;22.08;57.88;101726.69;4993624;28;20035;-81
2022/09/08 04:22:12;;;;;;;6.32;4.55;;;;;;;22.12;57.91;101735.63;5030280;28;20056;-81
2022/09/08 04:24:38;;;;;;;5.65;4.57;;;;;;;22.08;57.82;101737.31;5033252;28;20052;-81
2022/09/08 04:27:03;;;;;;;4.68;4.13;;;;;;;22.07;57.77;101734.63;5033083;28;20149;-81
2022/09/08 04:29:29;;;;;;;6.95;4.38;;;;;;;22.04;57.76;101737.22;5033356;28;20491;-82
2022/09/08 04:31:54;;;;;;;4.75;4.13;;;;;;;22.12;57.84;101748.94;5032053;28;20038;-81
2022/09/08 04:34:20;;;;;;;6.40;4.30;;;;;;;21.91;57.58;101720.09;5033060;28;20022;-81
2022/09/08 04:36:47;;;;;;;5.60;4.32;;;;;;;22.13;57.68;101761.38;5033943;28;20128;-81
2022/09/08 04:39:18;;;;;;;4.97;4.03;;;;;;;22.15;57.85;101762.31;5018469;28;20484;-81
2022/09/08 04:41:44;;;;;;;5.50;4.45;;;;;;;22.10;57.82;101756.88;5033893;28;20080;-80
2022/09/08 04:44:10;;;;;;;5.38;4.32;;;;;;;22.07;57.48;101754.13;5053301;28;20029;-81
2022/09/08 04:46:36;;;;;;;4.85;3.83;;;;;;;22.09;57.78;101763.03;5054756;28;20040;-81
2022/09/08 04:49:02;;;;;;;7.18;4.70;;;;;;;22.04;57.47;101750.53;5021326;28;20032;-81
2022/09/08 04:51:29;;;;;;;5.82;4.65;;;;;;;22.07;57.81;101761.22;5014681;28;20487;-81
2022/09/08 04:53:56;;;;;;;5.05;3.95;;;;;;;22.09;57.77;101768.38;5013395;28;20136;-81
2022/09/08 04:56:23;;;;;;;5.13;4.38;;;;;;;22.10;57.83;101767.53;5031750;28;20072;-81
2022/09/08 04:58:50;;;;;;;6.60;4.10;;;;;;;21.97;57.61;101760.13;5013377;28;20104;-81
2022/09/08 05:01:19;;;;;;;5.50;4.03;;;;;;;22.05;58.02;101778.91;5014897;28;20467;-82
2022/09/08 05:03:45;;;;;;;5.00;3.78;;;;;;;22.08;57.93;101782.56;5038178;28;20028;-82
2022/09/08 05:06:14;;;;;;;4.65;3.95;;;;;;;22.10;57.72;101785.25;5034295;28;20033;-81
2022/09/08 05:08:44;;;;;;;4.90;4.22;;;;;;;22.09;57.88;101780.78;5031537;28;20025;-81
2022/09/08 05:11:11;;;;;;;6.55;4.30;;;;;;;22.09;57.85;101783.44;5026961;28;20605;-81
2022/09/08 05:13:36;;;;;;;5.95;4.68;;;;;;;21.99;57.72;101762.81;5030088;28;20060;-80
2022/09/08 05:16:10;;;;;;;5.63;4.38;;;;;;;21.99;57.83;101762.81;5032372;28;20029;-80
2022/09/08 05:18:36;;;;;;;6.95;4.45;;;;;;;21.98;57.92;101769.91;5030840;28;20037;-80
2022/09/08 05:21:02;;;;;;;4.53;4.03;;;;;;;22.02;58.02;101779.75;5031476;28;20525;-81
2022/09/08 05:23:28;;;;;;;6.78;4.65;;;;;;;21.98;58.09;101769.91;5013448;28;20566;-80
2022/09/08 05:26:06;;;;;;;5.07;4.28;;;;;;;22.05;58.05;101784.22;5023883;28;20522;-81
2022/09/08 05:28:34;;;;;;;6.25;4.47;;;;;;;22.03;57.67;101778.88;5013124;28;20041;-81
2022/09/08 05:31:05;;;;;;;4.82;4.20;;;;;;;22.02;57.92;101777.09;5001794;28;20506;-82
2022/09/08 05:33:31;;;;;;;6.07;4.50;;;;;;;22.02;57.94;101779.75;5027866;28;21090;-81
2022/09/08 05:36:00;;;;;;;6.20;4.50;;;;;;;21.80;57.98;101745.53;5013472;28;20035;-81
2022/09/08 05:38:26;;;;;;;5.32;4.40;;;;;;;21.90;57.92;101760.84;4996074;28;20036;-82
2022/09/08 05:40:52;;;;;;;5.60;4.50;;;;;;;21.78;57.86;101733.94;5030841;28;20113;-81
2022/09/08 05:43:18;;;;;;;5.15;4.15;;;;;;;21.70;57.96;101720.50;5013433;28;20148;-81
2022/09/08 05:45:47;;;;;;;;;;;;;;;22.02;58.03;101776.19;5011278;28;20036;-81
2022/09/08 05:48:13;;;;;;;5.22;4.40;;;;;;;21.78;58.43;101740.19;5031792;28;19952;-81
2022/09/08 05:50:44;;;;;;;5.05;4.32;;;;;;;21.85;57.98;101749.22;4999435;28;20054;-82
2022/09/08 05:53:13;;;;;;;5.47;4.35;;;;;;;22.01;58.06;101782.34;5025680;28;20025;-81
2022/09/08 05:55:40;;;;;;;6.40;4.53;;;;;;;21.81;58.31;101750.88;5014272;28;20021;-84
2022/09/08 05:58:11;;;;;;;5.75;4.35;;;;;;;21.96;58.28;101780.50;4995317;28;20495;-82
2022/09/08 06:00:37;;;;;;;5.57;4.72;;;;;;;21.76;58.32;101744.56;5011214;28;20025;-83
2022/09/08 06:03:03;;;;;;;5.65;4.18;;;;;;;21.74;58.20;101730.34;5024785;28;20157;-84
2022/09/08 06:05:29;;;;;;;5.03;4.38;;;;;;;21.90;58.28;101772.38;5003247;28;20034;-83
2022/09/08 06:07:55;;;;;;;4.80;4.15;;;;;;;21.76;58.45;101741.91;5026561;28;20491;-81
2022/09/08 06:10:20;;;;;;;5.88;4.43;;;;;;;21.62;58.58;101722.06;5012953;28;20040;-84
2022/09/08 06:12:46;;;;;;;5.15;4.47;;;;;;;21.64;58.36;101712.38;5030209;28;20048;-83
2022/09/08 06:15:12;;;;;;;5.75;4.60;;;;;;;21.61;58.34;101712.28;5030799;28;20033;-82
2022/09/08 06:17:38;;;;;;;5.78;4.10;;;;;;;21.89;58.42;101761.72;5030123;28;20037;-80
2022/09/08 06:20:07;;;;;;;;;;;;;;;21.99;58.41;101778.75;5029492;28;20033;-84
2022/09/08 06:22:33;;;;;;;5.07;4.22;;;;;;;22.05;58.24;101786.88;5032158;28;19917;-83
2022/09/08 06:24:59;;;;;;;5.10;4.25;;;;;;;21.80;58.41;101742.88;5027039;28;20017;-82
2022/09/08 06:28:06;;;;;;;5.97;4.30;;;;;;;21.98;58.54;101785.84;5032725;28;20038;-83
2022/09/08 06:30:32;;;;;;;4.70;4.20;;;;;;;21.93;58.56;101777.78;4951687;28;20543;-83
2022/09/08 06:33:08;;;;;;;5.15;3.90;;;;;;;22.03;58.45;101788.63;5011538;28;20064;-82
2022/09/08 06:35:35;;;;;;;;;;;;;;;22.05;58.40;101789.56;5017951;28;20034;-88
2022/09/08 06:38:05;;;;;;;5.22;4.38;;;;;;;22.00;58.58;101783.25;5014319;28;20092;-85
2022/09/08 06:40:42;;;;;;;4.82;4.10;;;;;;;22.03;58.51;101788.63;5023866;28;20061;-83
2022/09/08 06:43:31;;;;;;;5.10;4.00;;;;;;;21.99;58.53;101787.63;5013631;28;20032;-83
2022/09/08 06:45:57;;;;;;;5.22;4.03;;;;;;;22.06;58.47;101804.66;5013053;28;20108;-84
2022/09/08 06:48:37;;;;;;;6.15;4.15;;;;;;;21.96;58.68;101804.44;5030333;28;20084;-83
2022/09/08 06:51:24;;;;;;;5.88;4.57;;;;;;;22.01;58.61;101800.97;5023267;28;20453;-85
2022/09/08 06:54:02;;;;;;;6.85;4.18;;;;;;;21.81;58.63;101773.94;5035781;28;20021;-85
2022/09/08 06:56:52;;;;;;;5.38;4.25;;;;;;;21.94;58.59;101798.16;5034520;28;20029;-84
2022/09/08 06:59:26;;;;;;;4.28;3.88;;;;;;;21.96;58.76;101814.19;5012034;28;20029;-84
2022/09/08 07:02:14;;;;;;;5.47;4.10;;;;;;;21.72;58.74;101763.97;5026519;28;20034;-85
2022/09/08 07:04:45;;;;;;;5.45;4.13;;;;;;;21.90;58.70;101793.63;5031931;28;20080;-84
2022/09/08 07:07:49;;;;;;;6.22;4.10;;;;;;;21.79;58.86;101773.88;4990129;28;20434;-84
2022/09/08 07:10:21;;;;;;;6.22;4.20;;;;;;;21.98;58.81;101816.88;5027733;28;20091;-85
2022/09/08 07:12:56;;;;;;;4.75;4.10;;;;;;;21.68;58.83;101760.34;5009031;28;20034;-84
2022/09/08 07:15:30;;;;;;;7.05;4.38;;;;;;;21.99;58.89;101816.91;4988676;28;20088;-84
2022/09/08 07:18:04;;;;;;;5.05;4.20;;;;;;;21.97;58.85;101813.34;5025964;28;20087;-84
2022/09/08 07:20:29;;;;;;;4.85;3.95;;;;;;;22.01;58.91;101824.91;5009827;28;20025;-85
2022/09/08 07:23:10;;;;;;;5.07;4.13;;;;;;;21.99;59.04;101818.66;5030042;28;20477;-84
2022/09/08 07:25:50;;;;;;;5.05;4.07;;;;;;;21.99;58.94;101824.88;5028782;28;20025;-83
2022/09/08 07:28:22;;;;;;;5.80;3.88;;;;;;;21.84;58.88;101795.25;5026031;28;20026;-83
2022/09/08 07:30:56;;;;;;;5.15;4.00;;;;;;;21.97;59.01;101818.66;5012275;28;20029;-82
2022/09/08 07:33:28;;;;;;;5.22;4.20;;;;;;;21.96;59.23;101827.47;5012988;28;20040;-84
2022/09/08 07:36:10;;;;;;;5.25;4.40;;;;;;;21.98;58.97;101830.19;5030422;28;20026;-84
2022/09/08 07:38:41;;;;;;;6.30;4.20;;;;;;;21.96;59.15;101836.34;4995924;28;20026;-84
2022/09/08 07:41:10;;;;;;;4.68;4.18;;;;;;;21.97;59.20;101831.94;5029737;28;20410;-85
2022/09/08 07:43:35;;;;;;;5.43;4.35;;;;;;;21.94;59.67;101835.41;5011801;28;20025;-84
2022/09/08 07:46:07;;;;;;;6.25;4.18;;;;;;;21.85;59.55;101819.25;5029012;28;20129;-84
2022/09/08 07:48:44;;;;;;;5.47;4.15;;;;;;;21.85;59.71;101832.53;5030307;28;20512;-85
2022/09/08 07:51:16;;;;;;;7.20;4.50;;;;;;;21.88;59.79;101821.06;5027551;28;20040;-85
2022/09/08 07:53:55;;;;;;;5.90;4.07;;;;;;;21.89;59.71;101823.78;5019968;28;20025;-87
2022/09/08 07:56:42;;;;;;;5.15;4.20;;;;;;;21.75;59.70;101819.88;5030498;28;20037;-85
2022/09/08 07:59:18;;;;;;;4.65;4.15;;;;;;;21.87;59.71;101829.91;5008215;28;20026;-84
2022/09/08 08:02:00;;;;;;;5.43;4.25;;;;;;;21.91;59.58;101834.47;5024081;28;20036;-85
2022/09/08 08:04:59;;;;;;;5.68;4.32;;;;;;;21.77;59.71;101817.25;5042205;28;20030;-85
2022/09/08 08:07:46;;;;;;;7.22;4.28;;;;;;;21.85;59.77;101840.50;5039327;28;20028;-84
2022/09/08 08:10:12;;;;;;;5.60;4.35;;;;;;;21.88;59.74;101837.91;5034056;28;20033;-85
2022/09/08 08:13:04;;;;;;;5.50;4.32;;;;;;;21.76;59.76;101816.38;5026898;28;20040;-85
2022/09/08 08:15:35;;;;;;;5.93;4.22;;;;;;;21.72;59.88;101814.50;5016052;28;20029;-86
2022/09/08 08:18:07;;;;;;;5.93;4.20;;;;;;;21.90;59.69;101841.50;5016494;28;20029;-87
2022/09/08 08:20:51;;;;;;;6.57;4.15;;;;;;;21.57;60.39;101792.81;4995432;28;20035;-84
2022/09/08 08:23:35;;;;;;;5.38;3.90;;;;;;;21.85;60.01;101829.88;5029329;28;20056;-86
2022/09/08 08:26:19;;;;;;;5.38;4.00;;;;;;;21.89;60.00;101833.53;5035406;28;20021;-86
2022/09/08 08:28:51;;;;;;;6.63;4.50;;;;;;;21.89;59.96;101837.06;4993252;28;20061;-87
2022/09/08 08:31:26;;;;;;;5.85;4.47;;;;;;;21.92;59.98;101830.91;5014332;28;20060;-84
2022/09/08 08:34:01;;;;;;;6.13;4.32;;;;;;;21.96;59.59;101820.38;5013667;28;20511;-86
2022/09/08 08:36:27;;;;;;;5.30;4.18;;;;;;;21.91;59.81;101823.81;5015875;28;20411;-88
2022/09/08 08:39:22;;;;;;;7.32;4.60;;;;;;;21.95;59.78;101831.00;5016484;28;20413;-88
2022/09/08 08:42:06;;;;;;;6.03;4.10;;;;;;;21.99;59.79;101821.31;5018386;28;20064;-86
2022/09/08 08:44:59;;;;;;;5.88;4.30;;;;;;;21.80;60.01;101796.97;5033672;28;20029;-87
2022/09/08 08:47:47;;;;;;;6.75;4.40;;;;;;;21.99;59.93;101829.31;5016174;28;20033;-86
2022/09/08 08:50:39;;;;;;;6.65;4.40;;;;;;;21.98;60.13;101836.41;5028490;28;20030;-85
2022/09/08 08:53:39;;;;;;;5.55;4.10;;;;;;;21.99;60.01;101830.19;4997214;28;20088;-85
2022/09/08 08:56:43;;;;;;;5.60;4.13;;;;;;;21.91;60.03;101815.84;5025998;28;20053;-85
2022/09/08 08:59:32;;;;;;;8.70;4.72;;;;;;;21.71;60.19;101781.66;4966230;28;20034;-86
2022/09/08 09:02:23;;;;;;;9.82;4.72;;;;;;;22.02;60.28;101832.06;5012243;28;20049;-86
2022/09/08 09:05:10;;;;;;;5.85;4.35;;;;;;;22.01;60.22;101822.25;5032527;28;20388;-85
2022/09/08 09:08:02;;;;;;;5.40;4.25;;;;;;;22.03;60.36;101817.88;5012220;28;20102;-86
2022/09/08 09:10:44;;;;;;;7.03;4.32;;;;;;;21.90;60.81;101804.28;5005624;28;20108;-84
2022/09/08 09:13:15;;;;;;;6.72;4.15;;;;;;;22.06;60.80;101815.31;4994231;28;20029;-85
2022/09/08 09:16:16;;;;;;;7.93;4.60;;;;;;;21.91;60.90;101787.47;5023675;28;20028;-83
2022/09/08 09:19:24;;;;;;;7.28;3.90;;;;;;;22.05;60.86;101810.84;5015062;28;20067;-84
2022/09/08 09:22:08;;;;;;;;;;;;;;;22.10;60.44;101802.09;4980956;28;20052;-84
2022/09/08 09:25:00;;;;;;;5.72;4.03;;;;;;;22.12;60.24;101799.50;5026800;28;19909;-84
2022/09/08 09:28:10;;;;;;;4.82;4.20;;;;;;;21.80;60.48;101754.41;5029121;28;20037;-84
2022/09/08 09:31:06;;;;;;;6.40;4.40;;;;;;;21.96;60.35;101769.84;4992100;28;20025;-83
2022/09/08 09:34:00;;;;;;;5.82;4.15;;;;;;;22.02;60.59;101787.72;5032131;28;20077;-84
2022/09/08 09:36:38;;;;;;;5.93;4.28;;;;;;;21.96;60.53;101772.50;5007069;28;20026;-84
2022/09/08 09:39:42;;;;;;;6.50;3.90;;;;;;;21.69;60.46;101722.22;5032854;28;20025;-83
2022/09/08 09:42:47;;;;;;;6.68;3.83;;;;;;;21.95;60.61;101760.09;4974057;28;20045;-84
2022/09/08 09:45:19;;;;;;;5.05;3.80;;;;;;;22.02;60.65;101781.50;5031025;28;20091;-84
2022/09/08 09:48:10;;;;;;;5.18;4.03;;;;;;;22.08;60.51;101774.56;5031012;28;20030;-86
2022/09/08 09:50:57;;;;;;;5.85;4.40;;;;;;;22.13;60.50;101778.22;5033218;28;20108;-85
2022/09/08 09:53:28;;;;;;;;;;;;;;;22.12;60.51;101771.13;5033120;28;20022;-84
2022/09/08 09:56:06;;;;;;;6.70;4.32;;;;;;;22.06;60.65;101776.28;5031847;28;19920;-85
2022/09/08 09:59:02;;;;;;;5.78;4.30;;;;;;;22.10;60.65;101771.94;5029672;28;20033;-85
2022/09/08 10:01:49;;;;;;;4.90;4.07;;;;;;;22.10;60.61;101764.84;5030335;28;20045;-85
2022/09/08 10:04:50;;;;;;;5.88;4.25;;;;;;;22.08;60.58;101769.25;5032340;28;20048;-84
2022/09/08 10:07:25;;;;;;;4.85;3.78;;;;;;;22.14;60.47;101764.06;5033029;28;20032;-85
2022/09/08 10:10:15;;;;;;;4.45;3.92;;;;;;;22.11;60.47;101760.44;5031434;28;20415;-84
2022/09/08 10:13:02;;;;;;;6.85;4.30;;;;;;;22.14;60.49;101760.53;5029493;28;20044;-84
2022/09/08 10:15:55;;;;;;;5.10;3.75;;;;;;;22.13;60.62;101758.69;5023868;28;20030;-85
2022/09/08 10:18:34;;;;;;;5.88;4.10;;;;;;;22.11;60.44;101741.81;5038667;28;20033;-85
2022/09/08 10:21:17;;;;;;;5.05;3.53;;;;;;;22.14;60.63;101753.44;5030317;28;20060;-85
2022/09/08 10:23:45;;;;;;;4.70;3.88;;;;;;;22.05;60.67;101734.59;4994559;28;20042;-85
2022/09/08 10:26:30;;;;;;;5.32;3.70;;;;;;;21.92;60.60;101725.44;5007990;28;20554;-83
2022/09/08 10:29:20;;;;;;;5.53;3.90;;;;;;;22.21;60.31;101749.13;4991978;28;20474;-84
2022/09/08 10:32:11;;;;;;;4.35;3.67;;;;;;;22.17;60.73;101757.91;5015424;28;20096;-84
2022/09/08 10:35:18;;;;;;;5.05;3.90;;;;;;;22.12;60.97;101763.13;5010761;28;20029;-84
2022/09/08 10:38:07;;;;;;;5.35;3.85;;;;;;;22.19;60.76;101763.28;4974259;28;20513;-84
2022/09/08 10:41:02;;;;;;;6.95;4.15;;;;;;;22.18;60.82;101762.34;4990610;28;20034;-85
2022/09/08 10:43:36;;;;;;;5.15;3.58;;;;;;;22.12;61.04;101749.84;4999401;28;20136;-86
2022/09/08 10:46:39;;;;;;;5.72;4.00;;;;;;;22.17;60.96;101760.56;5011552;28;20029;-86
2022/09/08 10:49:17;;;;;;;4.93;3.92;;;;;;;22.19;60.86;101756.19;4999841;28;20022;-85
2022/09/08 10:52:26;;;;;;;4.88;3.70;;;;;;;22.01;60.97;101711.44;5011980;28;20053;-86
2022/09/08 10:55:13;;;;;;;4.30;3.90;;;;;;;22.22;61.09;101748.25;5009896;28;20049;-84
2022/09/08 10:58:08;;;;;;;4.55;3.63;;;;;;;22.21;61.14;101750.91;5016373;28;20040;-83
2022/09/08 11:00:59;;;;;;;7.78;4.00;;;;;;;21.90;60.87;101683.72;4974111;28;20030;-83
2022/09/08 11:03:28;;;;;;;5.28;3.83;;;;;;;22.25;60.86;101740.38;4993275;28;20030;-84
2022/09/08 11:06:07;;;;;;;5.50;4.10;;;;;;;22.05;61.05;101705.31;5001717;28;20028;-84
2022/09/08 11:09:14;;;;;;;5.22;3.70;;;;;;;22.03;60.88;101695.50;5010173;28;20024;-84
2022/09/08 11:11:50;;;;;;;4.53;3.50;;;;;;;22.24;61.14;101738.56;5012104;28;20101;-84
2022/09/08 11:14:42;;;;;;;5.95;3.95;;;;;;;22.28;60.93;101736.88;4982141;28;20026;-84
2022/09/08 11:17:34;;;;;;;6.28;3.90;;;;;;;22.23;60.97;101730.59;5008288;28;20495;-85
2022/09/08 11:20:31;;;;;;;5.10;3.90;;;;;;;22.28;60.92;101736.88;4988281;28;20361;-85
2022/09/08 11:23:11;;;;;;;5.22;4.00;;;;;;;22.27;61.11;101738.66;5007015;28;20569;-86
2022/09/08 11:25:42;;;;;;;5.72;3.75;;;;;;;22.34;60.68;101735.25;4978943;28;20064;-86
2022/09/08 11:28:33;;;;;;;4.22;3.80;;;;;;;22.35;61.09;101734.41;4993671;28;20620;-85
2022/09/08 11:31:23;;;;;;;4.82;3.90;;;;;;;22.34;60.83;101731.69;5029705;28;20021;-85
2022/09/08 11:34:01;;;;;;;6.25;4.10;;;;;;;22.28;61.17;101731.56;5014617;28;20419;-83
2022/09/08 11:36:49;;;;;;;6.13;4.03;;;;;;;22.36;61.19;101725.53;5016297;28;20021;-86
2022/09/08 11:39:27;;;;;;;5.13;3.90;;;;;;;22.24;61.63;101711.06;5013899;28;20045;-86
2022/09/08 11:42:17;;;;;;;3.88;3.47;;;;;;;22.43;61.24;101729.22;4992556;28;20026;-86
2022/09/08 11:44:55;;;;;;;5.35;4.10;;;;;;;22.29;60.72;101682.81;4997560;28;20396;-86
2022/09/08 11:47:58;;;;;;;4.97;3.60;;;;;;;22.46;61.22;101718.66;5008108;28;20113;-86
2022/09/08 11:50:40;;;;;;;6.75;3.95;;;;;;;22.53;61.05;101720.56;5010739;28;20040;-86
2022/09/08 11:53:12;;;;;;;8.40;3.50;;;;;;;22.67;60.47;101722.59;4976584;28;20034;-85
2022/09/08 11:56:09;;;;;;;6.00;3.90;;;;;;;22.68;60.36;101719.06;5008098;28;20053;-86
2022/09/08 11:59:04;;;;;;;4.53;3.90;;;;;;;22.61;60.80;101717.16;5012474;28;20053;-85
2022/09/08 12:01:56;;;;;;;7.55;4.05;;;;;;;22.27;61.12;101661.50;4989066;28;20034;-85
2022/09/08 12:04:50;;;;;;;5.35;3.95;;;;;;;22.61;60.97;101711.84;4979192;28;20087;-84
2022/09/08 12:08:02;;;;;;;4.85;3.92;;;;;;;22.47;60.90;101693.81;5013217;28;20033;-84
2022/09/08 12:10:50;;;;;;;4.72;3.80;;;;;;;22.38;61.22;101671.47;4970576;28;20481;-85